sensor_id;sensor_type;location;lat;lon;timestamp;pressure;altitude;pressure_sealevel;temperature;humidity
85153;BME280;75520;43.358;19.362;2024-01-30T00:01:41;94758.72;;;-3.86;80.96
85153;BME280;75520;43.358;19.362;2024-01-30T00:04:06;94757.94;;;-3.86;80.48
85153;BME280;75520;43.358;19.362;2024-01-30T00:06:32;94769.69;;;-3.84;80.31
85153;BME280;75520;43.358;19.362;2024-01-30T00:08:58;94760.72;;;-3.88;81.26
85153;BME280;75520;43.358;19.362;2024-01-30T00:11:24;94764.50;;;-3.84;81.05
85153;BME280;75520;43.358;19.362;2024-01-30T00:13:54;94765.09;;;-3.82;81.27
85153;BME280;75520;43.358;19.362;2024-01-30T00:16:25;94770.31;;;-3.75;84.22
85153;BME280;75520;43.358;19.362;2024-01-30T00:18:51;94747.94;;;-3.89;81.59
85153;BME280;75520;43.358;19.362;2024-01-30T00:21:17;94769.69;;;-3.77;81.62
85153;BME280;75520;43.358;19.362;2024-01-30T00:23:43;94771.69;;;-3.79;81.20
85153;BME280;75520;43.358;19.362;2024-01-30T00:26:09;94751.53;;;-3.90;80.78
85153;BME280;75520;43.358;19.362;2024-01-30T00:28:34;94730.19;;;-4.05;80.67
85153;BME280;75520;43.358;19.362;2024-01-30T00:31:00;94727.56;;;-4.12;81.24
85153;BME280;75520;43.358;19.362;2024-01-30T00:33:25;94756.72;;;-3.90;80.95
85153;BME280;75520;43.358;19.362;2024-01-30T00:35:51;94764.31;;;-3.89;81.24
85153;BME280;75520;43.358;19.362;2024-01-30T00:38:16;94768.69;;;-3.89;82.72
85153;BME280;75520;43.358;19.362;2024-01-30T00:40:42;94770.69;;;-3.91;81.52
85153;BME280;75520;43.358;19.362;2024-01-30T00:43:08;94760.31;;;-3.91;81.19
85153;BME280;75520;43.358;19.362;2024-01-30T00:45:34;94764.31;;;-3.89;82.41
85153;BME280;75520;43.358;19.362;2024-01-30T00:48:00;94751.91;;;-3.93;82.71
85153;BME280;75520;43.358;19.362;2024-01-30T00:50:26;94753.94;;;-3.89;86.51
85153;BME280;75520;43.358;19.362;2024-01-30T00:52:51;94757.91;;;-3.93;84.00
85153;BME280;75520;43.358;19.362;2024-01-30T00:55:17;94759.72;;;-3.93;82.23
85153;BME280;75520;43.358;19.362;2024-01-30T00:57:42;94746.34;;;-3.97;82.86
85153;BME280;75520;43.358;19.362;2024-01-30T01:00:08;94745.56;;;-4.04;84.18
85153;BME280;75520;43.358;19.362;2024-01-30T01:02:37;94710.44;;;-4.26;82.46
85153;BME280;75520;43.358;19.362;2024-01-30T01:05:04;94722.41;;;-4.25;81.90
85153;BME280;75520;43.358;19.362;2024-01-30T01:07:30;94746.72;;;-4.13;81.66
85153;BME280;75520;43.358;19.362;2024-01-30T01:09:56;94740.34;;;-4.17;81.31
85153;BME280;75520;43.358;19.362;2024-01-30T01:12:21;94737.34;;;-4.27;80.99
85153;BME280;75520;43.358;19.362;2024-01-30T01:14:47;94742.31;;;-4.32;82.28
85153;BME280;75520;43.358;19.362;2024-01-30T01:17:12;94740.16;;;-4.35;84.67
85153;BME280;75520;43.358;19.362;2024-01-30T01:19:38;94742.31;;;-4.39;83.42
85153;BME280;75520;43.358;19.362;2024-01-30T01:22:04;94745.53;;;-4.43;82.75
85153;BME280;75520;43.358;19.362;2024-01-30T01:24:31;94740.72;;;-4.53;82.07
85153;BME280;75520;43.358;19.362;2024-01-30T01:26:58;94693.19;;;-4.87;81.58
85153;BME280;75520;43.358;19.362;2024-01-30T01:29:24;94743.69;;;-4.56;83.48
85153;BME280;75520;43.358;19.362;2024-01-30T01:31:54;94749.50;;;-4.54;83.31
85153;BME280;75520;43.358;19.362;2024-01-30T01:34:21;94745.50;;;-4.57;83.89
85153;BME280;75520;43.358;19.362;2024-01-30T01:36:47;94738.09;;;-4.60;84.81
85153;BME280;75520;43.358;19.362;2024-01-30T01:39:12;94746.47;;;-4.58;82.67
85153;BME280;75520;43.358;19.362;2024-01-30T01:41:38;94749.44;;;-4.61;82.35
85153;BME280;75520;43.358;19.362;2024-01-30T01:44:03;94710.75;;;-4.82;82.15
85153;BME280;75520;43.358;19.362;2024-01-30T01:46:31;94743.28;;;-4.66;82.51
85153;BME280;75520;43.358;19.362;2024-01-30T01:48:58;94731.31;;;-4.74;82.80
85153;BME280;75520;43.358;19.362;2024-01-30T01:51:27;94647.47;;;-5.27;83.53
85153;BME280;75520;43.358;19.362;2024-01-30T01:53:55;94720.31;;;-4.82;83.18
85153;BME280;75520;43.358;19.362;2024-01-30T01:56:22;94719.91;;;-4.86;82.92
85153;BME280;75520;43.358;19.362;2024-01-30T01:58:49;94727.84;;;-4.88;86.48
85153;BME280;75520;43.358;19.362;2024-01-30T02:01:18;94731.06;;;-4.92;88.02
85153;BME280;75520;43.358;19.362;2024-01-30T02:03:45;94701.28;;;-5.16;84.28
85153;BME280;75520;43.358;19.362;2024-01-30T02:06:12;94735.59;;;-5.01;83.59
85153;BME280;75520;43.358;19.362;2024-01-30T02:08:39;94734.56;;;-5.06;83.80
85153;BME280;75520;43.358;19.362;2024-01-30T02:11:04;94724.19;;;-5.13;84.14
85153;BME280;75520;43.358;19.362;2024-01-30T02:13:30;94723.22;;;-5.12;84.57
85153;BME280;75520;43.358;19.362;2024-01-30T02:15:56;94723.16;;;-5.18;84.75
85153;BME280;75520;43.358;19.362;2024-01-30T02:18:22;94727.75;;;-5.20;82.44
85153;BME280;75520;43.358;19.362;2024-01-30T02:20:48;94734.13;;;-5.16;84.21
85153;BME280;75520;43.358;19.362;2024-01-30T02:23:15;94734.53;;;-5.19;83.50
85153;BME280;75520;43.358;19.362;2024-01-30T02:25:42;94689.59;;;-5.46;83.43
85153;BME280;75520;43.358;19.362;2024-01-30T02:28:13;94728.91;;;-5.30;83.35
85153;BME280;75520;43.358;19.362;2024-01-30T02:30:47;94693.34;;;-5.55;87.74
85153;BME280;75520;43.358;19.362;2024-01-30T02:33:13;94733.25;;;-5.37;84.96
85153;BME280;75520;43.358;19.362;2024-01-30T02:35:38;94738.41;;;-5.37;84.16
85153;BME280;75520;43.358;19.362;2024-01-30T02:38:04;94733.22;;;-5.43;83.89
85153;BME280;75520;43.358;19.362;2024-01-30T02:40:30;94722.84;;;-5.50;86.31
85153;BME280;75520;43.358;19.362;2024-01-30T02:42:57;94728.19;;;-5.51;84.48
85153;BME280;75520;43.358;19.362;2024-01-30T02:45:23;94726.56;;;-5.59;84.91
85153;BME280;75520;43.358;19.362;2024-01-30T02:47:48;94726.91;;;-5.69;84.68
85153;BME280;75520;43.358;19.362;2024-01-30T02:50:14;94687.78;;;-5.93;85.34
85153;BME280;75520;43.358;19.362;2024-01-30T02:52:40;94737.44;;;-5.70;85.66
85153;BME280;75520;43.358;19.362;2024-01-30T02:55:06;94703.88;;;-5.98;87.29
85153;BME280;75520;43.358;19.362;2024-01-30T02:57:32;94732.78;;;-5.81;88.14
85153;BME280;75520;43.358;19.362;2024-01-30T02:59:57;94739.94;;;-5.83;87.16
85153;BME280;75520;43.358;19.362;2024-01-30T03:02:23;94728.38;;;-5.87;87.21
85153;BME280;75520;43.358;19.362;2024-01-30T03:04:49;94692.63;;;-6.12;85.91
85153;BME280;75520;43.358;19.362;2024-01-30T03:07:14;94735.75;;;-5.91;88.14
85153;BME280;75520;43.358;19.362;2024-01-30T03:09:41;94738.88;;;-5.95;89.47
85153;BME280;75520;43.358;19.362;2024-01-30T03:12:08;94716.25;;;-6.15;90.54
85153;BME280;75520;43.358;19.362;2024-01-30T03:14:34;94657.94;;;-6.52;88.35
85153;BME280;75520;43.358;19.362;2024-01-30T03:17:00;94735.06;;;-6.06;86.13
85153;BME280;75520;43.358;19.362;2024-01-30T03:19:25;94740.41;;;-6.08;85.99
85153;BME280;75520;43.358;19.362;2024-01-30T03:21:50;94731.19;;;-6.17;85.66
85153;BME280;75520;43.358;19.362;2024-01-30T03:24:16;94736.94;;;-6.15;86.08
85153;BME280;75520;43.358;19.362;2024-01-30T03:26:42;94688.56;;;-6.49;86.23
85153;BME280;75520;43.358;19.362;2024-01-30T03:29:08;94743.31;;;-6.17;86.52
85153;BME280;75520;43.358;19.362;2024-01-30T03:31:34;94739.09;;;-6.25;88.49
85153;BME280;75520;43.358;19.362;2024-01-30T03:34:00;94738.50;;;-6.20;90.01
85153;BME280;75520;43.358;19.362;2024-01-30T03:36:26;94745.81;;;-6.24;88.22
85153;BME280;75520;43.358;19.362;2024-01-30T03:38:51;94752.00;;;-6.25;88.49
85153;BME280;75520;43.358;19.362;2024-01-30T03:41:17;94703.47;;;-6.51;90.29
85153;BME280;75520;43.358;19.362;2024-01-30T03:43:42;94735.81;;;-6.33;89.53
85153;BME280;75520;43.358;19.362;2024-01-30T03:46:08;94728.81;;;-6.40;89.24
85153;BME280;75520;43.358;19.362;2024-01-30T03:48:34;94727.81;;;-6.39;90.04
85153;BME280;75520;43.358;19.362;2024-01-30T03:50:59;94738.69;;;-6.43;90.59
85153;BME280;75520;43.358;19.362;2024-01-30T03:53:25;94740.88;;;-6.47;89.21
85153;BME280;75520;43.358;19.362;2024-01-30T03:55:51;94732.50;;;-6.49;88.42
85153;BME280;75520;43.358;19.362;2024-01-30T03:58:16;94734.66;;;-6.52;88.63
85153;BME280;75520;43.358;19.362;2024-01-30T04:00:42;94727.03;;;-6.60;89.68
85153;BME280;75520;43.358;19.362;2024-01-30T04:03:07;94743.16;;;-6.58;87.75
85153;BME280;75520;43.358;19.362;2024-01-30T04:05:33;94706.72;;;-6.85;86.95
85153;BME280;75520;43.358;19.362;2024-01-30T04:07:59;94697.50;;;-6.94;86.97
85153;BME280;75520;43.358;19.362;2024-01-30T04:10:24;94740.06;;;-6.68;86.83
85153;BME280;75520;43.358;19.362;2024-01-30T04:12:50;94745.84;;;-6.66;88.81
85153;BME280;75520;43.358;19.362;2024-01-30T04:15:17;94745.22;;;-6.68;89.52
85153;BME280;75520;43.358;19.362;2024-01-30T04:17:45;94744.44;;;-6.69;90.27
85153;BME280;75520;43.358;19.362;2024-01-30T04:20:14;94747.81;;;-6.68;89.91
85153;BME280;75520;43.358;19.362;2024-01-30T04:22:46;94665.88;;;-7.17;88.49
85153;BME280;75520;43.358;19.362;2024-01-30T04:25:12;94692.63;;;-7.03;88.43
85153;BME280;75520;43.358;19.362;2024-01-30T04:27:38;94731.38;;;-6.82;88.97
85153;BME280;75520;43.358;19.362;2024-01-30T04:30:04;94741.91;;;-6.84;87.20
85153;BME280;75520;43.358;19.362;2024-01-30T04:32:30;94741.00;;;-6.91;87.49
85153;BME280;75520;43.358;19.362;2024-01-30T04:34:55;94748.59;;;-6.89;86.69
85153;BME280;75520;43.358;19.362;2024-01-30T04:37:21;94744.78;;;-6.93;89.46
85153;BME280;75520;43.358;19.362;2024-01-30T04:39:46;94743.53;;;-6.97;92.07
85153;BME280;75520;43.358;19.362;2024-01-30T04:42:12;94744.28;;;-7.03;91.51
85153;BME280;75520;43.358;19.362;2024-01-30T04:44:37;94761.78;;;-6.99;89.03
85153;BME280;75520;43.358;19.362;2024-01-30T04:47:03;94755.56;;;-7.04;87.68
85153;BME280;75520;43.358;19.362;2024-01-30T04:49:31;94758.34;;;-7.06;92.09
85153;BME280;75520;43.358;19.362;2024-01-30T04:51:56;94763.50;;;-7.06;92.33
85153;BME280;75520;43.358;19.362;2024-01-30T04:54:23;94765.81;;;-7.11;90.11
85153;BME280;75520;43.358;19.362;2024-01-30T04:56:48;94766.38;;;-7.16;89.69
85153;BME280;75520;43.358;19.362;2024-01-30T04:59:14;94771.97;;;-7.12;89.33
85153;BME280;75520;43.358;19.362;2024-01-30T05:01:39;94775.72;;;-7.15;88.32
85153;BME280;75520;43.358;19.362;2024-01-30T05:04:07;94749.03;;;-7.36;87.58
85153;BME280;75520;43.358;19.362;2024-01-30T05:06:33;94775.19;;;-7.25;87.83
85153;BME280;75520;43.358;19.362;2024-01-30T05:08:58;94783.91;;;-7.26;87.86
85153;BME280;75520;43.358;19.362;2024-01-30T05:11:24;94785.06;;;-7.28;88.06
85153;BME280;75520;43.358;19.362;2024-01-30T05:13:49;94783.28;;;-7.28;88.51
85153;BME280;75520;43.358;19.362;2024-01-30T05:16:14;94787.00;;;-7.30;89.59
85153;BME280;75520;43.358;19.362;2024-01-30T05:18:40;94800.38;;;-7.27;89.90
85153;BME280;75520;43.358;19.362;2024-01-30T05:21:06;94800.53;;;-7.28;90.17
85153;BME280;75520;43.358;19.362;2024-01-30T05:23:31;94798.94;;;-7.29;93.81
85153;BME280;75520;43.358;19.362;2024-01-30T05:25:56;94811.59;;;-7.34;92.41
85153;BME280;75520;43.358;19.362;2024-01-30T05:28:22;94809.34;;;-7.37;91.82
85153;BME280;75520;43.358;19.362;2024-01-30T05:30:48;94805.78;;;-7.36;93.12
85153;BME280;75520;43.358;19.362;2024-01-30T05:33:13;94814.50;;;-7.37;91.91
85153;BME280;75520;43.358;19.362;2024-01-30T05:35:39;94812.91;;;-7.38;91.07
85153;BME280;75520;43.358;19.362;2024-01-30T05:38:04;94808.13;;;-7.41;90.56
85153;BME280;75520;43.358;19.362;2024-01-30T05:40:30;94800.44;;;-7.50;89.66
85153;BME280;75520;43.358;19.362;2024-01-30T05:42:56;94819.94;;;-7.47;89.06
85153;BME280;75520;43.358;19.362;2024-01-30T05:45:23;94796.44;;;-7.67;89.46
85153;BME280;75520;43.358;19.362;2024-01-30T05:47:49;94794.56;;;-7.73;90.68
85153;BME280;75520;43.358;19.362;2024-01-30T05:50:14;94783.53;;;-7.81;91.35
85153;BME280;75520;43.358;19.362;2024-01-30T05:52:40;94818.97;;;-7.61;92.22
85153;BME280;75520;43.358;19.362;2024-01-30T05:55:05;94821.88;;;-7.64;92.93
85153;BME280;75520;43.358;19.362;2024-01-30T05:57:34;94828.00;;;-7.65;90.58
85153;BME280;75520;43.358;19.362;2024-01-30T05:59:59;94828.00;;;-7.65;90.15
85153;BME280;75520;43.358;19.362;2024-01-30T06:02:25;94818.03;;;-7.68;91.07
85153;BME280;75520;43.358;19.362;2024-01-30T06:04:50;94816.63;;;-7.70;93.95
85153;BME280;75520;43.358;19.362;2024-01-30T06:07:16;94826.75;;;-7.69;90.56
85153;BME280;75520;43.358;19.362;2024-01-30T06:09:42;94827.56;;;-7.68;89.94
85153;BME280;75520;43.358;19.362;2024-01-30T06:12:08;94813.50;;;-7.66;91.97
85153;BME280;75520;43.358;19.362;2024-01-30T06:14:34;94825.44;;;-7.65;91.38
85153;BME280;75520;43.358;19.362;2024-01-30T06:16:59;94788.78;;;-7.90;89.46
85153;BME280;75520;43.358;19.362;2024-01-30T06:19:25;94824.81;;;-7.67;88.93
85153;BME280;75520;43.358;19.362;2024-01-30T06:21:50;94824.00;;;-7.67;90.00
85153;BME280;75520;43.358;19.362;2024-01-30T06:24:16;94796.94;;;-7.86;90.15
85153;BME280;75520;43.358;19.362;2024-01-30T06:26:42;94817.25;;;-7.68;89.13
85153;BME280;75520;43.358;19.362;2024-01-30T06:29:08;94795.97;;;-7.85;90.63
85153;BME280;75520;43.358;19.362;2024-01-30T06:31:40;94828.00;;;-7.65;91.85
85153;BME280;75520;43.358;19.362;2024-01-30T06:34:07;94833.16;;;-7.65;91.59
85153;BME280;75520;43.358;19.362;2024-01-30T06:36:33;94830.88;;;-7.60;91.32
85153;BME280;75520;43.358;19.362;2024-01-30T06:38:58;94827.13;;;-7.57;91.30
85153;BME280;75520;43.358;19.362;2024-01-30T06:41:24;94828.56;;;-7.55;91.78
85153;BME280;75520;43.358;19.362;2024-01-30T06:43:49;94822.69;;;-7.49;96.68
85153;BME280;75520;43.358;19.362;2024-01-30T06:46:15;94831.22;;;-7.48;93.33
85153;BME280;75520;43.358;19.362;2024-01-30T06:48:41;94760.84;;;-7.86;92.63
85153;BME280;75520;43.358;19.362;2024-01-30T06:51:06;94820.56;;;-7.45;92.12
85153;BME280;75520;43.358;19.362;2024-01-30T06:53:32;94826.25;;;-7.35;92.42
85153;BME280;75520;43.358;19.362;2024-01-30T06:55:57;94820.94;;;-7.33;92.67
85153;BME280;75520;43.358;19.362;2024-01-30T06:58:23;94819.56;;;-7.29;91.94
85153;BME280;75520;43.358;19.362;2024-01-30T07:00:48;94828.22;;;-7.22;92.95
85153;BME280;75520;43.358;19.362;2024-01-30T07:03:14;94816.38;;;-7.17;92.99
85153;BME280;75520;43.358;19.362;2024-01-30T07:05:39;94797.97;;;-7.28;93.56
85153;BME280;75520;43.358;19.362;2024-01-30T07:08:05;94821.72;;;-7.03;92.47
85153;BME280;75520;43.358;19.362;2024-01-30T07:10:31;94822.78;;;-6.98;92.10
85153;BME280;75520;43.358;19.362;2024-01-30T07:12:56;94832.19;;;-6.90;91.29
85153;BME280;75520;43.358;19.362;2024-01-30T07:15:22;94820.72;;;-6.88;92.31
85153;BME280;75520;43.358;19.362;2024-01-30T07:17:47;94824.44;;;-6.90;92.20
85153;BME280;75520;43.358;19.362;2024-01-30T07:20:13;94828.72;;;-6.83;91.73
85153;BME280;75520;43.358;19.362;2024-01-30T07:22:40;94829.59;;;-6.76;91.25
85153;BME280;75520;43.358;19.362;2024-01-30T07:25:07;94831.28;;;-6.68;90.77
85153;BME280;75520;43.358;19.362;2024-01-30T07:27:33;94840.06;;;-6.62;90.33
85153;BME280;75520;43.358;19.362;2024-01-30T07:29:59;94821.00;;;-6.61;89.74
85153;BME280;75520;43.358;19.362;2024-01-30T07:32:24;94825.47;;;-6.55;88.81
85153;BME280;75520;43.358;19.362;2024-01-30T07:34:50;94819.91;;;-6.52;88.34
85153;BME280;75520;43.358;19.362;2024-01-30T07:37:15;94819.81;;;-6.44;87.65
85153;BME280;75520;43.358;19.362;2024-01-30T07:39:42;94817.28;;;-6.38;89.25
85153;BME280;75520;43.358;19.362;2024-01-30T07:42:08;94788.81;;;-6.44;88.97
85153;BME280;75520;43.358;19.362;2024-01-30T07:44:34;94821.91;;;-6.12;88.64
85153;BME280;75520;43.358;19.362;2024-01-30T07:46:59;94822.03;;;-5.98;86.26
85153;BME280;75520;43.358;19.362;2024-01-30T07:49:25;94785.56;;;-6.04;87.61
85153;BME280;75520;43.358;19.362;2024-01-30T07:51:50;94814.91;;;-5.62;88.04
85153;BME280;75520;43.358;19.362;2024-01-30T07:54:16;94816.81;;;-5.49;89.46
85153;BME280;75520;43.358;19.362;2024-01-30T07:56:42;94799.06;;;-5.52;89.03
85153;BME280;75520;43.358;19.362;2024-01-30T07:59:11;94829.66;;;-5.28;88.29
85153;BME280;75520;43.358;19.362;2024-01-30T08:01:37;94826.19;;;-5.14;87.05
85153;BME280;75520;43.358;19.362;2024-01-30T08:04:03;94823.25;;;-5.04;84.71
85153;BME280;75520;43.358;19.362;2024-01-30T08:06:29;94827.28;;;-4.89;84.47
85153;BME280;75520;43.358;19.362;2024-01-30T08:08:54;94827.75;;;-4.78;83.49
85153;BME280;75520;43.358;19.362;2024-01-30T08:11:22;94798.63;;;-4.80;84.33
85153;BME280;75520;43.358;19.362;2024-01-30T08:13:52;94824.09;;;-4.36;85.07
85153;BME280;75520;43.358;19.362;2024-01-30T08:16:17;94832.97;;;-4.04;85.34
85153;BME280;75520;43.358;19.362;2024-01-30T08:18:44;94836.19;;;-3.69;85.95
85153;BME280;75520;43.358;19.362;2024-01-30T08:21:09;94831.78;;;-3.43;86.20
85153;BME280;75520;43.358;19.362;2024-01-30T08:23:35;94832.97;;;-3.32;86.14
85153;BME280;75520;43.358;19.362;2024-01-30T08:26:00;94831.34;;;-3.26;85.41
85153;BME280;75520;43.358;19.362;2024-01-30T08:28:26;94823.94;;;-3.16;87.73
85153;BME280;75520;43.358;19.362;2024-01-30T08:30:52;94823.69;;;-2.88;88.30
85153;BME280;75520;43.358;19.362;2024-01-30T08:33:18;94824.88;;;-2.33;88.34
85153;BME280;75520;43.358;19.362;2024-01-30T08:35:43;94825.53;;;-1.75;87.46
85153;BME280;75520;43.358;19.362;2024-01-30T08:38:10;94816.69;;;-1.24;85.78
85153;BME280;75520;43.358;19.362;2024-01-30T08:40:37;94818.59;;;-0.77;84.69
85153;BME280;75520;43.358;19.362;2024-01-30T08:43:03;94810.41;;;-0.44;83.54
85153;BME280;75520;43.358;19.362;2024-01-30T08:45:29;94812.69;;;-0.17;82.65
85153;BME280;75520;43.358;19.362;2024-01-30T08:47:56;94815.25;;;0.01;82.20
85153;BME280;75520;43.358;19.362;2024-01-30T08:50:21;94785.06;;;0.05;82.23
85153;BME280;75520;43.358;19.362;2024-01-30T08:52:47;94811.84;;;0.54;82.23
85153;BME280;75520;43.358;19.362;2024-01-30T08:55:12;94769.22;;;0.42;81.00
85153;BME280;75520;43.358;19.362;2024-01-30T08:57:38;94812.19;;;0.69;80.85
85153;BME280;75520;43.358;19.362;2024-01-30T09:00:04;94806.72;;;0.35;78.58
85153;BME280;75520;43.358;19.362;2024-01-30T09:02:32;94813.84;;;0.17;78.95
85153;BME280;75520;43.358;19.362;2024-01-30T09:04:58;94818.66;;;0.02;77.28
85153;BME280;75520;43.358;19.362;2024-01-30T09:07:23;94806.47;;;-0.34;76.89
85153;BME280;75520;43.358;19.362;2024-01-30T09:09:49;94808.75;;;-0.56;77.16
85153;BME280;75520;43.358;19.362;2024-01-30T09:12:14;94810.00;;;-0.59;76.82
85153;BME280;75520;43.358;19.362;2024-01-30T09:14:40;94811.97;;;-0.72;76.43
85153;BME280;75520;43.358;19.362;2024-01-30T09:17:06;94820.22;;;-0.76;75.91
85153;BME280;75520;43.358;19.362;2024-01-30T09:19:32;94813.41;;;-0.77;75.98
85153;BME280;75520;43.358;19.362;2024-01-30T09:21:58;94808.75;;;-0.75;75.42
85153;BME280;75520;43.358;19.362;2024-01-30T09:24:24;94807.03;;;-0.81;75.10
85153;BME280;75520;43.358;19.362;2024-01-30T09:26:50;94802.81;;;-0.82;74.37
85153;BME280;75520;43.358;19.362;2024-01-30T09:29:15;94803.03;;;-0.83;74.13
85153;BME280;75520;43.358;19.362;2024-01-30T09:31:45;94800.31;;;-0.88;73.78
85153;BME280;75520;43.358;19.362;2024-01-30T09:34:14;94795.44;;;-0.85;74.09
85153;BME280;75520;43.358;19.362;2024-01-30T09:36:39;94803.75;;;-0.76;74.18
85153;BME280;75520;43.358;19.362;2024-01-30T09:39:05;94800.28;;;-0.70;74.64
85153;BME280;75520;43.358;19.362;2024-01-30T09:41:44;94788.47;;;-0.72;75.17
85153;BME280;75520;43.358;19.362;2024-01-30T09:44:11;94758.81;;;-0.90;75.23
85153;BME280;75520;43.358;19.362;2024-01-30T09:46:37;94757.50;;;-0.81;76.00
85153;BME280;75520;43.358;19.362;2024-01-30T09:49:03;94792.38;;;-0.45;76.63
85153;BME280;75520;43.358;19.362;2024-01-30T09:51:30;94789.72;;;-0.27;77.99
85153;BME280;75520;43.358;19.362;2024-01-30T09:53:59;94762.88;;;-0.16;79.23
85153;BME280;75520;43.358;19.362;2024-01-30T09:56:24;94779.69;;;0.42;79.76
85153;BME280;75520;43.358;19.362;2024-01-30T09:58:50;94774.59;;;0.82;79.41
85153;BME280;75520;43.358;19.362;2024-01-30T10:01:17;94745.03;;;1.04;79.75
85153;BME280;75520;43.358;19.362;2024-01-30T10:03:44;94770.47;;;1.61;80.73
85153;BME280;75520;43.358;19.362;2024-01-30T10:06:10;94770.84;;;2.09;81.35
85153;BME280;75520;43.358;19.362;2024-01-30T10:08:35;94769.00;;;2.60;79.79
85153;BME280;75520;43.358;19.362;2024-01-30T10:11:01;94739.66;;;2.96;78.32
85153;BME280;75520;43.358;19.362;2024-01-30T10:13:28;94761.59;;;3.51;76.84
85153;BME280;75520;43.358;19.362;2024-01-30T10:15:54;94745.59;;;3.74;76.52
85153;BME280;75520;43.358;19.362;2024-01-30T10:18:22;94750.28;;;3.72;74.06
85153;BME280;75520;43.358;19.362;2024-01-30T10:20:47;94766.22;;;4.14;74.95
85153;BME280;75520;43.358;19.362;2024-01-30T10:23:14;94750.28;;;4.58;73.87
85153;BME280;75520;43.358;19.362;2024-01-30T10:25:39;94720.72;;;4.82;72.14
85153;BME280;75520;43.358;19.362;2024-01-30T10:28:05;94746.63;;;4.59;69.82
85153;BME280;75520;43.358;19.362;2024-01-30T10:30:31;94739.34;;;4.71;71.67
85153;BME280;75520;43.358;19.362;2024-01-30T10:32:56;94734.59;;;4.73;68.94
85153;BME280;75520;43.358;19.362;2024-01-30T10:35:22;94732.63;;;4.90;71.31
85153;BME280;75520;43.358;19.362;2024-01-30T10:37:48;94729.16;;;5.32;71.52
85153;BME280;75520;43.358;19.362;2024-01-30T10:40:14;94724.06;;;5.87;70.57
85153;BME280;75520;43.358;19.362;2024-01-30T10:42:44;94724.41;;;6.16;65.84
85153;BME280;75520;43.358;19.362;2024-01-30T10:45:11;94725.72;;;5.99;65.84
85153;BME280;75520;43.358;19.362;2024-01-30T10:47:49;94714.38;;;5.98;62.98
85153;BME280;75520;43.358;19.362;2024-01-30T10:50:15;94701.75;;;6.10;67.23
85153;BME280;75520;43.358;19.362;2024-01-30T10:52:41;94705.19;;;6.46;67.77
85153;BME280;75520;43.358;19.362;2024-01-30T10:55:08;94696.69;;;6.85;65.88
85153;BME280;75520;43.358;19.362;2024-01-30T10:57:37;94694.50;;;7.12;60.78
85153;BME280;75520;43.358;19.362;2024-01-30T11:00:06;94663.81;;;7.31;62.80
85153;BME280;75520;43.358;19.362;2024-01-30T11:02:39;94689.03;;;7.68;63.90
85153;BME280;75520;43.358;19.362;2024-01-30T11:05:05;94691.63;;;7.78;64.50
85153;BME280;75520;43.358;19.362;2024-01-30T11:07:31;94689.13;;;7.97;63.74
85153;BME280;75520;43.358;19.362;2024-01-30T11:10:02;94680.69;;;8.29;57.71
85153;BME280;75520;43.358;19.362;2024-01-30T11:12:39;94673.19;;;8.46;52.62
85153;BME280;75520;43.358;19.362;2024-01-30T11:15:11;94662.91;;;8.73;59.24
85153;BME280;75520;43.358;19.362;2024-01-30T11:20:27;94660.25;;;8.97;49.04
85153;BME280;75520;43.358;19.362;2024-01-30T11:22:54;94663.66;;;9.03;57.95
85153;BME280;75520;43.358;19.362;2024-01-30T11:25:22;94669.06;;;8.92;58.28
85153;BME280;75520;43.358;19.362;2024-01-30T11:27:51;94657.53;;;9.31;56.31
85153;BME280;75520;43.358;19.362;2024-01-30T11:33:01;94651.50;;;9.87;47.68
85153;BME280;75520;43.358;19.362;2024-01-30T11:35:32;94651.19;;;10.07;55.68
85153;BME280;75520;43.358;19.362;2024-01-30T11:37:59;94655.31;;;10.51;55.83
85153;BME280;75520;43.358;19.362;2024-01-30T11:40:27;94644.97;;;9.79;53.45
85153;BME280;75520;43.358;19.362;2024-01-30T11:42:54;94639.38;;;9.99;53.67
85153;BME280;75520;43.358;19.362;2024-01-30T11:45:20;94642.38;;;9.93;53.51
85153;BME280;75520;43.358;19.362;2024-01-30T11:47:46;94635.69;;;10.14;54.77
85153;BME280;75520;43.358;19.362;2024-01-30T11:50:12;94605.81;;;10.09;52.54
85153;BME280;75520;43.358;19.362;2024-01-30T11:52:38;94630.09;;;10.34;52.28
85153;BME280;75520;43.358;19.362;2024-01-30T11:55:04;94629.03;;;10.35;52.83
85153;BME280;75520;43.358;19.362;2024-01-30T11:57:30;94618.47;;;10.63;51.83
85153;BME280;75520;43.358;19.362;2024-01-30T11:59:55;94626.69;;;10.94;51.24
85153;BME280;75520;43.358;19.362;2024-01-30T12:02:21;94624.31;;;11.06;50.92
85153;BME280;75520;43.358;19.362;2024-01-30T12:04:46;94616.03;;;11.07;49.65
85153;BME280;75520;43.358;19.362;2024-01-30T12:07:12;94614.09;;;11.13;49.62
85153;BME280;75520;43.358;19.362;2024-01-30T12:09:41;94612.66;;;11.57;48.66
85153;BME280;75520;43.358;19.362;2024-01-30T12:12:07;94608.78;;;11.90;48.48
85153;BME280;75520;43.358;19.362;2024-01-30T12:14:38;94600.44;;;11.69;47.51
85153;BME280;75520;43.358;19.362;2024-01-30T12:17:04;94602.81;;;11.71;47.86
85153;BME280;75520;43.358;19.362;2024-01-30T12:19:30;94589.03;;;11.55;47.50
85153;BME280;75520;43.358;19.362;2024-01-30T12:21:58;94594.69;;;12.12;44.08
85153;BME280;75520;43.358;19.362;2024-01-30T12:24:28;94593.47;;;12.40;41.71
85153;BME280;75520;43.358;19.362;2024-01-30T12:26:59;94588.63;;;12.42;40.71
85153;BME280;75520;43.358;19.362;2024-01-30T12:29:25;94586.84;;;12.60;45.88
85153;BME280;75520;43.358;19.362;2024-01-30T12:31:55;94582.41;;;12.78;41.25
85153;BME280;75520;43.358;19.362;2024-01-30T12:34:21;94582.03;;;13.01;45.02
85153;BME280;75520;43.358;19.362;2024-01-30T12:36:47;94573.50;;;13.22;45.39
85153;BME280;75520;43.358;19.362;2024-01-30T12:39:15;94562.06;;;13.30;44.91
85153;BME280;75520;43.358;19.362;2024-01-30T12:41:40;94566.56;;;13.12;45.60
85153;BME280;75520;43.358;19.362;2024-01-30T12:44:07;94536.91;;;13.05;45.20
85153;BME280;75520;43.358;19.362;2024-01-30T12:46:34;94564.66;;;13.13;43.61
85153;BME280;75520;43.358;19.362;2024-01-30T12:49:00;94562.09;;;13.38;43.68
85153;BME280;75520;43.358;19.362;2024-01-30T12:51:26;94518.09;;;13.10;43.28
85153;BME280;75520;43.358;19.362;2024-01-30T12:53:52;94523.63;;;13.22;43.24